Time;durP1;ratioP1;P1;durP2;ratioP2;P2;SDS_P1;SDS_P2;PMS_P1;PMS_P2;Temp;Humidity;BMP_temperature;BMP_pressure;BME280_temperature;BME280_humidity;BME280_pressure;Samples;Min_cycle;Max_cycle;Signal;HPM_P1;HPM_P2
2021/12/09 00:01:26;;;;;;;10.93;6.50;;;4.50;1.00;;;;;;5021697;28;20261;-58
2021/12/09 00:03:57;;;;;;;24.60;12.67;;;4.50;1.00;;;;;;5038609;28;20292;-58
2021/12/09 00:06:28;;;;;;;11.80;5.60;;;4.40;99.90;;;;;;5039014;28;20192;-57
2021/12/09 00:09:04;;;;;;;10.77;5.30;;;4.30;99.90;;;;;;5018558;28;20225;-58
2021/12/09 00:11:34;;;;;;;12.23;5.23;;;4.40;99.90;;;;;;5016544;28;20530;-60
2021/12/09 00:14:01;;;;;;;11.70;5.20;;;4.40;99.90;;;;;;5024581;28;20294;-59
2021/12/09 00:16:28;;;;;;;8.50;5.23;;;4.40;99.90;;;;;;5026257;28;20196;-60
2021/12/09 00:18:55;;;;;;;13.07;5.73;;;4.40;99.90;;;;;;5037855;28;20202;-58
2021/12/09 00:21:22;;;;;;;11.57;5.70;;;4.50;99.90;;;;;;5038387;28;20207;-57
2021/12/09 00:23:49;;;;;;;12.77;5.40;;;4.50;99.90;;;;;;5038098;28;20254;-57
2021/12/09 00:26:17;;;;;;;18.50;5.73;;;4.60;99.90;;;;;;5020874;28;20235;-57
2021/12/09 00:28:44;;;;;;;11.30;5.47;;;4.60;99.90;;;;;;5039069;28;20243;-57
2021/12/09 00:31:11;;;;;;;10.50;5.33;;;4.50;99.90;;;;;;5038116;28;20562;-57
2021/12/09 00:33:43;;;;;;;10.80;5.40;;;4.60;99.90;;;;;;5038342;28;20191;-57
2021/12/09 00:36:11;;;;;;;9.20;5.53;;;4.60;49.60;;;;;;5010770;28;20204;-57
2021/12/09 00:38:41;;;;;;;10.73;5.53;;;4.70;12.00;;;;;;5039004;28;20234;-58
2021/12/09 00:41:14;;;;;;;9.13;4.97;;;4.60;38.10;;;;;;5037810;28;20646;-56
2021/12/09 00:43:43;;;;;;;9.83;5.50;;;4.60;96.30;;;;;;5039151;28;20196;-57
2021/12/09 00:46:10;;;;;;;10.77;5.57;;;4.60;94.60;;;;;;5039311;28;20436;-57
2021/12/09 00:48:39;;;;;;;11.20;5.70;;;4.70;31.50;;;;;;5005497;28;20215;-57
2021/12/09 00:51:08;;;;;;;10.83;5.53;;;4.70;16.00;;;;;;5020713;28;20195;-57
2021/12/09 00:53:36;;;;;;;10.53;5.57;;;4.70;33.10;;;;;;5036921;28;20239;-57
2021/12/09 00:56:05;;;;;;;10.23;5.73;;;4.70;39.20;;;;;;5036149;28;20191;-58
2021/12/09 00:58:32;;;;;;;10.47;5.20;;;4.70;18.20;;;;;;5019407;28;20204;-57
2021/12/09 01:01:00;;;;;;;11.63;4.80;;;4.60;74.90;;;;;;5018837;28;20196;-58
2021/12/09 01:03:27;;;;;;;11.97;5.37;;;4.60;57.50;;;;;;5036037;28;20224;-58
2021/12/09 01:05:54;;;;;;;11.17;6.00;;;4.60;43.70;;;;;;5020477;28;20397;-57
2021/12/09 01:08:39;;;;;;;9.63;5.20;;;4.70;59.00;;;;;;5036157;28;20211;-57
2021/12/09 01:11:07;;;;;;;9.90;5.33;;;4.60;86.40;;;;;;5037523;28;20211;-57
2021/12/09 01:13:35;;;;;;;9.57;5.30;;;4.60;73.90;;;;;;5003874;28;20185;-57
2021/12/09 01:16:03;;;;;;;9.77;5.43;;;4.60;99.90;;;;;;5018509;28;20206;-57
2021/12/09 01:18:34;;;;;;;7.60;5.27;;;4.60;99.90;;;;;;5036455;28;20270;-57
2021/12/09 01:21:02;;;;;;;12.17;5.00;;;4.50;83.50;;;;;;5039055;28;20206;-58
2021/12/09 01:23:29;;;;;;;12.07;5.20;;;4.70;96.60;;;;;;5019196;28;20253;-57
2021/12/09 01:26:01;;;;;;;12.87;4.70;;;4.70;57.00;;;;;;5039978;28;20203;-58
2021/12/09 01:28:33;;;;;;;8.33;4.93;;;4.70;1.00;;;;;;5024006;28;20315;-59
2021/12/09 01:31:03;;;;;;;11.47;5.30;;;4.80;1.00;;;;;;5040530;28;20198;-58
2021/12/09 01:33:32;;;;;;;9.57;4.60;;;4.80;1.00;;;;;;5041303;28;20281;-58
2021/12/09 01:36:00;;;;;;;10.20;4.57;;;4.90;1.00;;;;;;5025956;28;20942;-58
2021/12/09 01:38:30;;;;;;;10.60;5.23;;;4.90;1.00;;;;;;5031415;28;20721;-57
2021/12/09 01:40:57;;;;;;;9.47;4.30;;;4.90;1.00;;;;;;5037301;28;20188;-58
2021/12/09 01:43:25;;;;;;;10.27;4.53;;;4.80;1.00;;;;;;5035811;28;20192;-57
2021/12/09 01:46:22;;;;;;;8.57;4.47;;;4.80;1.00;;;;;;5036480;28;20210;-58
2021/12/09 01:48:51;;;;;;;10.37;5.20;;;4.80;1.00;;;;;;5006898;28;20228;-58
2021/12/09 01:51:19;;;;;;;10.10;4.40;;;4.90;1.00;;;;;;5036886;28;20235;-58
2021/12/09 01:53:47;;;;;;;10.90;4.67;;;4.90;1.00;;;;;;5003403;28;20188;-58
2021/12/09 01:56:21;;;;;;;7.93;4.20;;;4.80;1.00;;;;;;5030908;28;20258;-58
2021/12/09 01:58:50;;;;;;;10.80;4.70;;;4.80;1.00;;;;;;5036593;28;20203;-57
2021/12/09 02:01:18;;;;;;;9.83;4.70;;;4.80;1.00;;;;;;5035401;28;21131;-58
2021/12/09 02:03:46;;;;;;;9.53;4.70;;;4.80;1.00;;;;;;5022912;28;20216;-58
2021/12/09 02:06:13;;;;;;;10.00;4.60;;;4.70;1.00;;;;;;5036314;28;20195;-58
2021/12/09 02:08:40;;;;;;;9.97;4.67;;;4.80;1.00;;;;;;5036756;28;20667;-58
2021/12/09 02:11:07;;;;;;;8.53;4.53;;;4.90;1.00;;;;;;5035626;28;20222;-57
2021/12/09 02:13:34;;;;;;;9.93;4.50;;;4.80;1.00;;;;;;5041260;28;20882;-59
2021/12/09 02:16:03;;;;;;;14.37;4.40;;;4.80;1.00;;;;;;5040618;28;20218;-58
2021/12/09 02:18:30;;;;;;;12.33;4.83;;;4.80;1.00;;;;;;5041692;28;20196;-58
2021/12/09 02:21:16;;;;;;;7.60;4.30;;;4.90;1.00;;;;;;5040395;28;20253;-59
2021/12/09 02:23:46;;;;;;;11.53;3.40;;;4.90;1.00;;;;;;5032491;28;20204;-58
2021/12/09 02:26:15;;;;;;;8.97;3.83;;;4.90;1.00;;;;;;5040030;28;20703;-57
2021/12/09 02:28:43;;;;;;;8.33;3.47;;;5.00;1.00;;;;;;5022288;28;20675;-58
2021/12/09 02:31:10;;;;;;;9.50;4.13;;;5.00;1.00;;;;;;5039358;28;20195;-58
2021/12/09 02:33:38;;;;;;;10.03;3.70;;;5.00;1.00;;;;;;5023233;28;20205;-58
2021/12/09 02:36:06;;;;;;;9.27;4.03;;;5.00;1.00;;;;;;5040039;28;20655;-58
2021/12/09 02:38:41;;;;;;;6.70;3.37;;;5.00;1.00;;;;;;5020703;28;20228;-58
2021/12/09 02:41:16;;;;;;;10.60;3.63;;;5.00;1.00;;;;;;5041930;28;20195;-58
2021/12/09 02:43:45;;;;;;;5.77;3.83;;;5.00;1.00;;;;;;5040208;28;20291;-58
2021/12/09 02:46:12;;;;;;;6.00;3.57;;;5.00;1.00;;;;;;5030056;28;20237;-57
2021/12/09 02:48:39;;;;;;;9.40;3.63;;;4.90;1.00;;;;;;5039544;28;20195;-57
2021/12/09 02:51:07;;;;;;;8.87;3.50;;;4.90;1.00;;;;;;5039238;28;20219;-57
2021/12/09 02:53:35;;;;;;;13.70;4.20;;;5.00;1.00;;;;;;5038510;28;20196;-57
2021/12/09 02:56:03;;;;;;;8.00;3.00;;;5.00;1.00;;;;;;5039199;28;20192;-58
2021/12/09 02:58:30;;;;;;;5.30;3.53;;;5.00;1.00;;;;;;5007656;28;20203;-58
2021/12/09 03:00:59;;;;;;;8.27;3.87;;;4.90;1.00;;;;;;5021096;28;20287;-57
2021/12/09 03:03:27;;;;;;;6.53;3.60;;;4.90;1.00;;;;;;5029574;28;20219;-57
2021/12/09 03:05:57;;;;;;;8.47;3.40;;;4.90;1.00;;;;;;5027723;28;20279;-59
2021/12/09 03:08:37;;;;;;;11.13;3.50;;;4.90;1.00;;;;;;5021953;28;20280;-57
2021/12/09 03:11:11;;;;;;;11.73;4.00;;;4.90;1.00;;;;;;5039867;28;20220;-60
2021/12/09 03:13:39;;;;;;;9.03;4.07;;;4.80;1.00;;;;;;5040466;28;20192;-58
2021/12/09 03:16:07;;;;;;;10.83;3.83;;;4.80;1.00;;;;;;5041923;28;20197;-57
2021/12/09 03:18:43;;;;;;;10.57;3.80;;;4.80;1.00;;;;;;5041614;28;20245;-58
2021/12/09 03:21:28;;;;;;;11.03;4.00;;;4.90;1.00;;;;;;5029962;28;20295;-57
2021/12/09 03:23:57;;;;;;;12.33;4.67;;;4.80;1.00;;;;;;5039185;28;20241;-57
2021/12/09 03:26:33;;;;;;;9.00;3.83;;;4.80;1.00;;;;;;5022142;28;20250;-57
2021/12/09 03:29:05;;;;;;;9.57;3.67;;;4.70;1.00;;;;;;5028821;28;20199;-57
2021/12/09 03:31:32;;;;;;;9.87;3.90;;;4.60;1.00;;;;;;5040977;28;20191;-57
2021/12/09 03:34:00;;;;;;;8.03;4.00;;;4.50;23.90;;;;;;5038494;28;20282;-58
2021/12/09 03:36:28;;;;;;;10.37;3.80;;;4.30;87.30;;;;;;5040028;28;20275;-57
2021/12/09 03:38:58;;;;;;;12.70;4.43;;;4.20;99.90;;;;;;5025543;28;20285;-57
2021/12/09 03:41:26;;;;;;;9.43;4.30;;;4.10;99.90;;;;;;5038756;28;20184;-57
2021/12/09 03:43:54;;;;;;;6.80;4.07;;;4.00;99.90;;;;;;5022582;28;20219;-58
2021/12/09 03:46:21;;;;;;;9.60;4.60;;;4.00;99.90;;;;;;5041242;28;20189;-58
2021/12/09 03:48:48;;;;;;;9.23;4.07;;;4.00;99.90;;;;;;5035594;28;20992;-57
2021/12/09 03:51:15;;;;;;;9.73;4.50;;;3.90;99.90;;;;;;5022168;28;20300;-58
2021/12/09 03:53:42;;;;;;;11.97;4.27;;;3.90;99.90;;;;;;5041267;28;20243;-57
2021/12/09 03:56:09;;;;;;;12.27;4.13;;;4.00;99.90;;;;;;5020042;28;20196;-57
2021/12/09 03:58:36;;;;;;;9.13;4.43;;;4.00;99.90;;;;;;5039279;28;20184;-58
2021/12/09 04:01:04;;;;;;;10.97;4.67;;;4.10;99.90;;;;;;5021229;28;20401;-58
2021/12/09 04:03:31;;;;;;;12.53;4.30;;;4.10;99.90;;;;;;5037390;28;20591;-58
2021/12/09 04:05:58;;;;;;;7.90;3.87;;;4.00;99.90;;;;;;5039114;28;20195;-60
2021/12/09 04:08:25;;;;;;;14.53;4.37;;;3.90;99.90;;;;;;5038921;28;20222;-60
2021/12/09 04:10:52;;;;;;;11.93;4.73;;;3.70;99.90;;;;;;5036493;28;20220;-58
2021/12/09 04:13:19;;;;;;;11.90;4.30;;;3.70;99.90;;;;;;5019751;28;20230;-58
2021/12/09 04:15:47;;;;;;;10.87;4.63;;;3.60;99.90;;;;;;5018954;28;20204;-58
2021/12/09 04:18:14;;;;;;;11.77;4.70;;;3.60;1.00;;;;;;5023140;28;20203;-59
2021/12/09 04:20:41;;;;;;;11.67;4.40;;;3.60;1.00;;;;;;5037390;28;20219;-60
2021/12/09 04:23:09;;;;;;;10.90;4.13;;;3.70;1.00;;;;;;5039749;28;20196;-58
2021/12/09 04:25:36;;;;;;;9.77;3.97;;;3.70;99.90;;;;;;5036487;28;20223;-60
2021/12/09 04:28:03;;;;;;;10.70;5.07;;;3.70;99.90;;;;;;5019218;28;20683;-59
2021/12/09 04:30:32;;;;;;;14.90;4.50;;;3.60;99.90;;;;;;5036744;28;20224;-58
2021/12/09 04:32:59;;;;;;;7.03;4.40;;;3.60;1.00;;;;;;5021516;28;20193;-57
2021/12/09 04:35:26;;;;;;;6.87;3.87;;;3.50;1.00;;;;;;5035524;28;20217;-58
2021/12/09 04:37:54;;;;;;;10.27;4.40;;;3.30;1.00;;;;;;5022835;28;20204;-57
2021/12/09 04:40:21;;;;;;;14.00;4.43;;;3.30;1.00;;;;;;5038878;28;20786;-59
2021/12/09 04:42:48;;;;;;;10.07;4.13;;;3.30;1.00;;;;;;5037767;28;20227;-58
2021/12/09 04:45:15;;;;;;;10.57;5.17;;;3.20;1.00;;;;;;5036795;28;20222;-58
2021/12/09 04:47:42;;;;;;;20.37;9.73;;;3.10;1.00;;;;;;5021189;28;20208;-58
2021/12/09 04:50:10;;;;;;;13.73;5.67;;;3.00;1.00;;;;;;5037805;28;20285;-60
2021/12/09 04:52:38;;;;;;;11.93;4.93;;;3.00;1.00;;;;;;5027397;28;20215;-60
2021/12/09 04:55:07;;;;;;;9.03;5.10;;;2.90;1.00;;;;;;5037114;28;20192;-60
2021/12/09 04:57:35;;;;;;;14.03;4.93;;;2.90;1.00;;;;;;5038695;28;20214;-59
2021/12/09 05:00:07;;;;;;;10.43;4.30;;;2.80;1.00;;;;;;5036808;28;20662;-59
2021/12/09 05:03:00;;;;;;;14.07;5.13;;;2.80;27.90;;;;;;5037578;28;20207;-60
2021/12/09 05:05:22;;;;;;;10.63;5.23;;;2.80;4.40;;;;;;5024595;28;20206;-60
2021/12/09 05:07:49;;;;;;;12.93;5.10;;;2.70;1.00;;;;;;5038249;28;20638;-58
2021/12/09 05:10:16;;;;;;;11.17;5.00;;;2.60;28.30;;;;;;5037171;28;20207;-59
2021/12/09 05:12:43;;;;;;;19.93;8.27;;;2.50;52.10;;;;;;5034539;28;20311;-59
2021/12/09 05:15:11;;;;;;;16.63;5.17;;;2.40;99.90;;;;;;5026026;28;20249;-59
2021/12/09 05:17:38;;;;;;;7.03;4.33;;;2.40;99.90;;;;;;5036743;28;21040;-59
2021/12/09 05:20:06;;;;;;;17.13;6.30;;;2.50;99.90;;;;;;5033800;28;20274;-59
2021/12/09 05:22:33;;;;;;;25.33;15.50;;;2.40;99.90;;;;;;5032243;28;20188;-59
2021/12/09 05:25:00;;;;;;;13.67;8.60;;;2.30;99.90;;;;;;5007648;28;20202;-59
2021/12/09 05:27:29;;;;;;;14.90;5.63;;;2.20;99.90;;;;;;5039382;28;20315;-59
2021/12/09 05:30:07;;;;;;;12.43;5.73;;;2.20;99.90;;;;;;5021770;28;20739;-58
2021/12/09 05:32:35;;;;;;;10.63;5.20;;;2.30;99.90;;;;;;5020210;28;20200;-60
2021/12/09 05:35:02;;;;;;;7.87;4.87;;;2.30;99.90;;;;;;5025643;28;20207;-59
2021/12/09 05:37:29;;;;;;;12.73;5.07;;;2.30;99.90;;;;;;5022118;28;20192;-59
2021/12/09 05:39:59;;;;;;;14.17;6.03;;;2.30;99.90;;;;;;5025032;28;20239;-59
2021/12/09 05:42:30;;;;;;;13.03;6.10;;;2.20;99.90;;;;;;5027188;28;20191;-59
2021/12/09 05:44:57;;;;;;;8.30;5.00;;;2.30;99.90;;;;;;5039389;28;20271;-59
2021/12/09 05:47:24;;;;;;;11.07;5.20;;;2.40;99.90;;;;;;5018819;28;20211;-59
2021/12/09 05:49:53;;;;;;;15.47;5.70;;;2.50;99.90;;;;;;5036792;28;20216;-59
2021/12/09 05:52:20;;;;;;;14.60;5.60;;;2.40;99.90;;;;;;5037840;28;20202;-59
2021/12/09 05:54:48;;;;;;;11.00;5.83;;;2.30;99.90;;;;;;5035987;28;20683;-60
2021/12/09 05:57:15;;;;;;;16.03;6.00;;;2.30;99.90;;;;;;5036724;28;20602;-59
2021/12/09 05:59:42;;;;;;;10.20;5.57;;;2.20;99.90;;;;;;5037663;28;20199;-59
2021/12/09 06:02:11;;;;;;;12.33;5.40;;;2.20;99.90;;;;;;5027215;28;20192;-60
2021/12/09 06:04:39;;;;;;;15.07;5.97;;;2.00;99.90;;;;;;5023037;28;20212;-58
2021/12/09 06:07:06;;;;;;;14.97;5.50;;;1.90;99.90;;;;;;5025462;28;20305;-59
2021/12/09 06:09:34;;;;;;;15.77;6.57;;;1.90;1.00;;;;;;5034147;28;20196;-60
2021/12/09 06:12:01;;;;;;;13.43;6.80;;;1.90;1.00;;;;;;5034232;28;20223;-59
2021/12/09 06:14:28;;;;;;;11.43;6.10;;;2.00;1.00;;;;;;5037789;28;20237;-60
2021/12/09 06:16:55;;;;;;;12.77;6.47;;;2.10;1.00;;;;;;5037424;28;20289;-59
2021/12/09 06:19:22;;;;;;;16.20;6.63;;;2.00;1.00;;;;;;5021596;28;20238;-59
2021/12/09 06:21:49;;;;;;;12.20;5.70;;;2.00;1.00;;;;;;5019853;28;20227;-60
2021/12/09 06:24:21;;;;;;;14.07;6.57;;;1.90;1.00;;;;;;5037369;28;20250;-60
2021/12/09 06:26:48;;;;;;;10.60;5.43;;;1.80;1.00;;;;;;5037400;28;20670;-60
2021/12/09 06:29:15;;;;;;;17.60;6.90;;;1.70;1.00;;;;;;5036916;28;20192;-60
2021/12/09 06:31:42;;;;;;;13.07;5.97;;;1.70;1.00;;;;;;5037609;28;20305;-59
2021/12/09 06:34:11;;;;;;;10.23;6.10;;;1.70;1.00;;;;;;5038967;28;20188;-59
2021/12/09 06:36:42;;;;;;;12.90;5.33;;;1.60;1.00;;;;;;5038058;28;20192;-59
2021/12/09 06:39:10;;;;;;;13.97;6.53;;;1.40;1.00;;;;;;5036213;28;20223;-59
2021/12/09 06:41:37;;;;;;;14.50;6.00;;;1.30;1.00;;;;;;5037256;28;20192;-59
2021/12/09 06:44:04;;;;;;;58.30;32.70;;;1.20;1.00;;;;;;5037784;28;20257;-60
2021/12/09 06:46:31;;;;;;;78.23;45.63;;;1.20;99.90;;;;;;5034052;28;20189;-59
2021/12/09 06:48:58;;;;;;;27.80;16.77;;;1.30;99.90;;;;;;5020929;28;20230;-59
2021/12/09 06:51:25;;;;;;;23.37;13.77;;;1.40;99.90;;;;;;5035907;28;20208;-60
2021/12/09 06:53:53;;;;;;;28.30;17.17;;;1.50;99.90;;;;;;5039003;28;20188;-60
2021/12/09 06:56:20;;;;;;;15.43;12.00;;;1.40;99.90;;;;;;5031280;28;20201;-59
2021/12/09 06:58:47;;;;;;;18.80;10.27;;;1.40;99.90;;;;;;5012080;28;20218;-59
2021/12/09 07:01:14;;;;;;;15.30;10.00;;;1.50;99.90;;;;;;5048966;28;20225;-59
2021/12/09 07:03:42;;;;;;;29.87;18.47;;;1.50;99.90;;;;;;5050399;28;20226;-59
2021/12/09 07:06:11;;;;;;;35.23;22.10;;;1.50;99.90;;;;;;5052667;28;20278;-59
2021/12/09 07:08:48;;;;;;;36.03;22.20;;;1.50;99.90;;;;;;5051920;28;20207;-59
2021/12/09 07:11:18;;;;;;;28.83;15.90;;;1.50;79.60;;;;;;5052628;28;20917;-59
2021/12/09 07:13:46;;;;;;;23.77;10.93;;;1.50;39.70;;;;;;5051032;28;20192;-59
2021/12/09 07:16:14;;;;;;;17.70;11.00;;;1.50;98.00;;;;;;5033083;28;20252;-58
2021/12/09 07:18:41;;;;;;;23.93;11.63;;;1.60;28.30;;;;;;5035082;28;20218;-59
2021/12/09 07:21:09;;;;;;;28.40;12.07;;;1.70;6.20;;;;;;5015740;28;20350;-59
2021/12/09 07:23:37;;;;;;;21.73;12.67;;;1.70;1.00;;;;;;5033187;28;20195;-59
2021/12/09 07:26:04;;;;;;;29.23;12.33;;;1.80;1.00;;;;;;5052195;28;20282;-59
2021/12/09 07:28:32;;;;;;;35.00;16.53;;;1.80;1.00;;;;;;5050668;28;20394;-59
2021/12/09 07:30:59;;;;;;;28.90;15.30;;;1.80;1.00;;;;;;5036570;28;20273;-59
2021/12/09 07:33:26;;;;;;;37.43;19.67;;;1.90;1.00;;;;;;5052156;28;20200;-60
2021/12/09 07:35:53;;;;;;;23.90;13.37;;;2.00;1.00;;;;;;5052073;28;20253;-60
2021/12/09 07:38:21;;;;;;;25.63;15.30;;;2.00;1.00;;;;;;5052790;28;20314;-60
2021/12/09 07:40:48;;;;;;;23.17;12.57;;;2.00;1.00;;;;;;5036049;28;20195;-59
2021/12/09 07:43:15;;;;;;;13.30;9.77;;;2.00;1.00;;;;;;5054628;28;20789;-59
2021/12/09 07:45:42;;;;;;;14.33;7.57;;;2.10;1.00;;;;;;5033595;28;20199;-59
2021/12/09 07:48:09;;;;;;;12.80;6.63;;;2.10;1.00;;;;;;5033478;28;20495;-59
2021/12/09 07:50:38;;;;;;;14.90;8.00;;;2.20;99.90;;;;;;5050871;28;20628;-60
2021/12/09 07:53:05;;;;;;;16.70;7.60;;;2.20;99.90;;;;;;5034301;28;20195;-59
2021/12/09 07:55:32;;;;;;;25.97;15.70;;;2.30;99.90;;;;;;5050196;28;20328;-59
2021/12/09 07:57:59;;;;;;;25.93;14.23;;;2.30;99.90;;;;;;5050347;28;20200;-59
2021/12/09 08:00:30;;;;;;;18.67;10.43;;;2.40;99.90;;;;;;5043843;28;20325;-59
2021/12/09 08:02:58;;;;;;;20.53;10.53;;;2.50;99.90;;;;;;5043393;28;20191;-60
2021/12/09 08:05:27;;;;;;;20.00;8.87;;;2.50;99.90;;;;;;5016721;28;20237;-60
2021/12/09 08:07:55;;;;;;;21.33;9.20;;;2.70;51.80;;;;;;5040968;28;20215;-60
2021/12/09 08:10:22;;;;;;;10.43;6.43;;;2.70;1.00;;;;;;5046670;28;20200;-59
2021/12/09 08:12:51;;;;;;;14.53;6.10;;;2.80;1.00;;;;;;5047700;28;20191;-59
2021/12/09 08:15:39;;;;;;;15.60;6.43;;;2.80;1.00;;;;;;5027968;28;20199;-60
2021/12/09 08:20:48;;;;;;;11.07;5.43;;;3.10;1.00;;;;;;5049218;28;20782;-60
2021/12/09 08:23:16;;;;;;;15.33;5.90;;;3.30;1.00;;;;;;5047029;28;20230;-60
2021/12/09 08:25:43;;;;;;;14.47;5.20;;;3.40;1.00;;;;;;5049981;28;20196;-60
2021/12/09 08:28:11;;;;;;;10.63;4.40;;;3.60;1.00;;;;;;5034479;28;20679;-58
2021/12/09 08:30:38;;;;;;;10.67;4.90;;;3.70;99.90;;;;;;5049182;28;20254;-59
2021/12/09 08:33:23;;;;;;;12.37;5.50;;;3.80;99.90;;;;;;5032668;28;20198;-58
2021/12/09 08:35:50;;;;;;;13.07;5.30;;;4.00;99.90;;;;;;5045631;28;20189;-58
2021/12/09 08:38:18;;;;;;;15.57;5.57;;;4.10;99.90;;;;;;5030192;28;20219;-57
2021/12/09 08:40:46;;;;;;;13.13;4.77;;;4.30;99.90;;;;;;5045945;28;20187;-58
2021/12/09 08:43:15;;;;;;;14.63;4.93;;;4.20;99.90;;;;;;5032209;28;20310;-60
2021/12/09 08:45:43;;;;;;;10.17;4.90;;;4.40;72.70;;;;;;5043197;28;20603;-60
2021/12/09 08:48:10;;;;;;;11.47;4.23;;;4.40;24.90;;;;;;5023285;28;20503;-60
2021/12/09 08:50:38;;;;;;;16.00;5.33;;;4.50;1.00;;;;;;5043820;28;20247;-59
2021/12/09 08:53:10;;;;;;;16.33;5.20;;;4.40;15.10;;;;;;5045577;28;20196;-59
2021/12/09 08:55:39;;;;;;;16.80;5.57;;;4.50;1.00;;;;;;5042415;28;20196;-59
2021/12/09 08:58:08;;;;;;;13.13;6.13;;;4.50;28.70;;;;;;5042243;28;20203;-59
2021/12/09 09:00:35;;;;;;;10.03;5.40;;;4.50;1.20;;;;;;5041039;28;20238;-58
2021/12/09 09:03:06;;;;;;;16.93;5.30;;;4.50;25.10;;;;;;5029491;28;20681;-58
2021/12/09 09:05:34;;;;;;;11.63;5.37;;;4.50;1.00;;;;;;5042970;28;20743;-59
2021/12/09 09:08:03;;;;;;;15.47;5.87;;;4.50;1.00;;;;;;5047188;28;20696;-59
2021/12/09 09:10:33;;;;;;;11.00;4.87;;;4.60;1.00;;;;;;5044832;28;20555;-61
2021/12/09 09:13:00;;;;;;;13.93;5.47;;;4.80;1.00;;;;;;5044863;28;20239;-60
2021/12/09 09:15:29;;;;;;;9.60;4.70;;;5.50;1.00;;;;;;5027827;28;20199;-58
2021/12/09 09:17:57;;;;;;;16.43;6.13;;;6.80;99.90;;;;;;5047449;28;20635;-58
2021/12/09 09:20:26;;;;;;;9.57;4.30;;;8.50;1.00;;;;;;5047898;28;20971;-58
2021/12/09 09:22:54;;;;;;;9.37;4.00;;;10.30;99.90;;;;;;5038637;28;20564;-58
2021/12/09 09:25:29;;;;;;;8.97;3.53;;;11.50;99.90;;;;;;5046261;28;20195;-58
2021/12/09 09:27:58;;;;;;;8.10;3.40;;;12.50;99.90;;;;;;5046726;28;20260;-60
2021/12/09 09:30:33;;;;;;;9.73;3.93;;;13.10;99.90;;;;;;5044719;28;20497;-60
2021/12/09 09:33:06;;;;;;;9.13;3.43;;;13.50;99.90;;;;;;5045344;28;20188;-60
2021/12/09 09:35:34;;;;;;;7.97;3.30;;;14.70;99.90;;;;;;5025926;28;20183;-60
2021/12/09 09:38:02;;;;;;;10.83;3.73;;;14.60;99.90;;;;;;5040095;28;20276;-60
2021/12/09 09:40:50;;;;;;;8.27;3.13;;;15.40;99.90;;;;;;5045224;28;20203;-60
2021/12/09 09:43:31;;;;;;;11.70;3.27;;;15.50;99.90;;;;;;5047344;28;20226;-60
2021/12/09 09:46:05;;;;;;;7.83;3.60;;;15.50;99.90;;;;;;5048966;28;20199;-60
2021/12/09 09:48:33;;;;;;;7.93;3.40;;;14.00;97.20;;;;;;5046343;28;21476;-61
2021/12/09 09:51:02;;;;;;;10.43;3.77;;;13.50;97.80;;;;;;5046516;28;21035;-60
2021/12/09 09:53:29;;;;;;;9.97;3.57;;;14.10;99.10;;;;;;5047591;28;21471;-60
2021/12/09 09:55:56;;;;;;;9.90;3.40;;;14.20;99.30;;;;;;5044336;28;20196;-60
2021/12/09 09:58:25;;;;;;;12.10;3.23;;;14.20;97.10;;;;;;5044612;28;20290;-60
2021/12/09 10:00:52;;;;;;;13.47;5.57;;;14.10;95.70;;;;;;5025822;28;20196;-61
2021/12/09 10:03:19;;;;;;;9.13;3.63;;;14.10;95.30;;;;;;5045862;28;20690;-60
2021/12/09 10:05:48;;;;;;;9.93;3.90;;;14.20;95.60;;;;;;5027988;28;20230;-60
2021/12/09 10:08:17;;;;;;;8.18;3.25;;;15.70;96.80;;;;;;5022639;28;20679;-60
2021/12/09 10:10:46;;;;;;;12.13;3.45;;;16.10;96.10;;;;;;5023502;28;20711;-59
2021/12/09 10:13:15;;;;;;;10.23;3.60;;;15.40;91.40;;;;;;5046469;28;20199;-60
2021/12/09 10:15:51;;;;;;;11.98;3.70;;;15.80;92.90;;;;;;5025078;28;20196;-59
2021/12/09 10:18:43;;;;;;;10.10;3.40;;;15.70;90.50;;;;;;5047352;28;20190;-59
2021/12/09 10:21:18;;;;;;;12.40;6.40;;;16.60;91.40;;;;;;5045856;28;20282;-60
2021/12/09 10:23:50;;;;;;;8.65;3.15;;;16.60;81.90;;;;;;5046893;28;21190;-61
2021/12/09 10:26:22;;;;;;;9.05;4.57;;;14.00;83.40;;;;;;5027307;28;20280;-61
2021/12/09 10:28:56;;;;;;;8.38;3.50;;;14.70;86.60;;;;;;5043230;28;20250;-61
2021/12/09 10:31:30;;;;;;;8.87;3.60;;;15.10;84.60;;;;;;5044811;28;20207;-61
2021/12/09 10:34:47;;;;;;;11.18;3.95;;;15.00;86.40;;;;;;5049565;28;22056;-59
2021/12/09 10:36:59;;;;;;;9.50;3.88;;;15.50;88.80;;;;;;5043051;28;20262;-59
2021/12/09 10:39:38;;;;;;;11.52;3.53;;;16.30;89.90;;;;;;5052672;28;20219;-60
2021/12/09 10:42:22;;;;;;;9.15;3.58;;;16.00;82.40;;;;;;5049740;28;20215;-59
2021/12/09 10:44:53;;;;;;;13.00;3.50;;;15.70;83.90;;;;;;5049642;28;20206;-60
2021/12/09 10:47:55;;;;;;;11.38;4.10;;;15.30;85.60;;;;;;5031084;28;20256;-59
2021/12/09 10:55:55;;;;;;;10.50;3.37;;;12.30;80.70;;;;;;5051508;28;20270;-60
2021/12/09 10:58:27;;;;;;;10.97;4.00;;;11.10;99.90;;;;;;5050921;28;20270;-60
2021/12/09 11:00:57;;;;;;;9.23;3.47;;;10.60;99.90;;;;;;5033369;28;20607;-59
2021/12/09 11:03:25;;;;;;;9.13;4.10;;;9.80;1.00;;;;;;5033410;28;20223;-59
2021/12/09 11:05:57;;;;;;;13.97;3.60;;;9.40;1.00;;;;;;5030500;28;20218;-59
2021/12/09 11:08:47;;;;;;;11.57;3.60;;;8.90;1.00;;;;;;5050498;28;20195;-57
2021/12/09 11:11:16;;;;;;;11.27;3.50;;;8.30;1.00;;;;;;5048061;28;22085;-57
2021/12/09 11:13:48;;;;;;;7.37;3.50;;;8.10;1.00;;;;;;5032750;28;20767;-57
2021/12/09 11:16:30;;;;;;;8.57;4.03;;;8.00;1.00;;;;;;5032106;28;20203;-57
2021/12/09 11:19:07;;;;;;;7.97;3.53;;;7.90;1.00;;;;;;5048081;28;20191;-59
2021/12/09 11:21:39;;;;;;;12.40;4.47;;;7.40;99.90;;;;;;5053353;28;20203;-60
2021/12/09 11:24:11;;;;;;;5.47;3.10;;;7.20;99.90;;;;;;5053900;28;20737;-57
2021/12/09 11:29:22;;;;;;;11.47;3.23;;;7.40;99.90;;;;;;5052648;28;20229;-57
2021/12/09 11:32:13;;;;;;;10.40;3.50;;;7.20;99.90;;;;;;5051588;28;20255;-58
2021/12/09 11:34:45;;;;;;;10.57;3.20;;;7.20;99.90;;;;;;5051073;28;20195;-56
2021/12/09 11:39:55;;;;;;;11.20;3.00;;;7.20;99.90;;;;;;5049339;28;20453;-57
2021/12/09 11:42:31;;;;;;;9.87;3.17;;;7.20;99.90;;;;;;5049332;28;20196;-58
2021/12/09 11:45:09;;;;;;;12.30;3.60;;;6.90;99.90;;;;;;5049310;28;20257;-59
2021/12/09 11:47:41;;;;;;;9.80;3.40;;;6.70;99.90;;;;;;5034319;28;20285;-59
2021/12/09 11:50:18;;;;;;;10.20;3.57;;;6.80;99.90;;;;;;5046381;28;20557;-59
2021/12/09 11:52:47;;;;;;;11.87;3.80;;;6.80;99.90;;;;;;5049752;28;20774;-58
2021/12/09 11:55:18;;;;;;;5.97;3.40;;;6.90;99.90;;;;;;5030657;28;20242;-57
2021/12/09 11:58:07;;;;;;;8.07;3.57;;;6.90;99.90;;;;;;5051280;28;20204;-58
2021/12/09 12:12:50;;;;;;;9.00;4.10;;;6.70;99.90;;;;;;5051645;28;20210;-59
2021/12/09 12:24:34;;;;;;;5.13;2.20;;;6.30;99.90;;;;;;5051234;28;20196;-60
2021/12/09 12:27:06;;;;;;;6.57;2.23;;;6.20;99.90;;;;;;5046356;28;20227;-60
2021/12/09 12:40:57;;;;;;;8.17;3.60;;;6.10;1.00;;;;;;5029656;28;20655;-61
2021/12/09 12:43:33;;;;;;;7.57;3.00;;;6.20;1.00;;;;;;5031693;28;20273;-61
2021/12/09 12:48:40;;;;;;;4.90;3.10;;;6.10;1.00;;;;;;5048342;28;20195;-59
2021/12/09 12:51:48;;;;;;;7.73;3.60;;;6.10;1.00;;;;;;5044032;28;20192;-60
2021/12/09 12:54:26;;;;;;;12.27;4.00;;;6.20;1.00;;;;;;5030109;28;20191;-59
2021/12/09 12:56:58;;;;;;;8.97;3.97;;;6.10;1.00;;;;;;5048060;28;20249;-60
2021/12/09 12:59:32;;;;;;;5.90;3.60;;;6.10;99.90;;;;;;5050591;28;20702;-60
2021/12/09 13:02:00;;;;;;;7.30;4.93;;;5.90;1.00;;;;;;5047627;28;20261;-59
2021/12/09 13:04:42;;;;;;;9.37;4.17;;;5.90;1.00;;;;;;5049506;28;20276;-58
2021/12/09 13:07:23;;;;;;;9.73;4.50;;;6.00;1.00;;;;;;5047949;28;20231;-58
2021/12/09 13:10:03;;;;;;;8.33;4.30;;;6.00;1.00;;;;;;5048017;28;20370;-60
2021/12/09 13:12:46;;;;;;;14.10;5.60;;;6.10;1.00;;;;;;5031018;28;20655;-59
2021/12/09 13:15:26;;;;;;;10.80;5.77;;;6.00;1.00;;;;;;5027444;28;20202;-60
2021/12/09 13:18:02;;;;;;;14.13;4.73;;;5.90;1.00;;;;;;5047332;28;20233;-60
2021/12/09 13:20:32;;;;;;;8.80;4.47;;;5.90;1.00;;;;;;5042258;28;20245;-59
2021/12/09 13:23:23;;;;;;;13.07;4.87;;;6.00;99.90;;;;;;5028607;28;20454;-60
2021/12/09 13:26:20;;;;;;;6.67;5.20;;;6.00;1.00;;;;;;5028731;28;20267;-60
2021/12/09 13:29:04;;;;;;;7.97;4.40;;;5.90;1.00;;;;;;5050835;28;20195;-60
2021/12/09 13:32:43;;;;;;;7.73;4.40;;;5.90;99.90;;;;;;5047529;28;20718;-58
2021/12/09 13:34:45;;;;;;;10.53;4.10;;;6.00;99.90;;;;;;5030865;28;20290;-59
2021/12/09 13:48:15;;;;;;;9.30;4.43;;;6.20;1.00;;;;;;5045829;28;20276;-58
2021/12/09 13:56:01;;;;;;;14.00;6.43;;;6.00;99.90;;;;;;5045039;28;20810;-59
2021/12/09 13:58:28;;;;;;;12.67;5.70;;;6.00;99.90;;;;;;5029899;28;20279;-59
2021/12/09 14:00:55;;;;;;;10.03;5.37;;;6.00;1.00;;;;;;5047935;28;20200;-58
2021/12/09 14:03:25;;;;;;;24.43;11.30;;;5.90;1.00;;;;;;5047977;28;20230;-57
2021/12/09 14:05:55;;;;;;;12.87;6.13;;;5.80;1.00;;;;;;5012560;28;20219;-57
2021/12/09 14:08:36;;;;;;;9.73;4.50;;;5.80;1.00;;;;;;5032250;28;20196;-57
2021/12/09 14:11:24;;;;;;;10.40;4.70;;;5.70;1.00;;;;;;5051528;28;20195;-57
2021/12/09 14:14:04;;;;;;;11.10;5.60;;;5.70;1.00;;;;;;5035432;28;20230;-60
2021/12/09 14:16:43;;;;;;;10.60;4.30;;;5.70;1.00;;;;;;5034074;28;20250;-59